Time;durP1;ratioP1;P1;durP2;ratioP2;P2;SDS_P1;SDS_P2;PMS_P1;PMS_P2;Temp;Humidity;BMP_temperature;BMP_pressure;BME280_temperature;BME280_humidity;BME280_pressure;Samples;Min_cycle;Max_cycle;Signal;HPM_P1;HPM_P2
2022/04/12 00:01:34;;;;;;;0.70;0.70;;;;;;;1.54;90.46;98664.84;4806074;29;20059;-81
2022/04/12 00:04:03;;;;;;;0.80;0.80;;;;;;;1.57;90.37;98650.31;4805613;29;20054;-83
2022/04/12 00:06:30;;;;;;;0.70;0.70;;;;;;;1.55;90.13;98642.56;4805928;29;20524;-83
2022/04/12 00:08:57;;;;;;;0.80;0.80;;;;;;;1.54;90.04;98643.56;4805380;29;20515;-83
2022/04/12 00:11:25;;;;;;;0.60;0.60;;;;;;;1.55;90.08;98647.88;4804713;29;20055;-82
2022/04/12 00:13:53;;;;;;;0.80;0.80;;;;;;;1.54;89.95;98637.44;4805821;29;20050;-84
2022/04/12 00:16:20;;;;;;;0.70;0.70;;;;;;;1.55;90.02;98626.59;4805764;29;20479;-83
2022/04/12 00:19:02;;;;;;;0.70;0.70;;;;;;;1.56;89.99;98617.59;4819730;29;20426;-83
2022/04/12 00:21:34;;;;;;;0.70;0.70;;;;;;;1.53;89.97;98607.34;4804190;29;20171;-83
2022/04/12 00:24:04;;;;;;;0.80;0.80;;;;;;;1.51;90.02;98596.91;4805346;29;20050;-84
2022/04/12 00:26:32;;;;;;;0.80;0.80;;;;;;;1.49;90.13;98583.00;4805241;29;20097;-83
2022/04/12 00:28:59;;;;;;;0.70;0.70;;;;;;;1.48;90.16;98570.69;4805018;29;20426;-83
2022/04/12 00:31:30;;;;;;;0.70;0.70;;;;;;;1.47;90.30;98600.16;4819042;29;20077;-82
2022/04/12 00:33:57;;;;;;;0.70;0.70;;;;;;;1.45;90.43;98618.97;4805087;29;20107;-83
2022/04/12 00:36:25;;;;;;;0.88;0.88;;;;;;;1.48;90.58;98621.22;4805303;29;20055;-83
2022/04/12 00:38:52;;;;;;;0.80;0.80;;;;;;;1.54;90.88;98610.81;4805433;29;20141;-83
2022/04/12 00:41:19;;;;;;;0.80;0.80;;;;;;;1.56;90.76;98609.63;4805414;29;20051;-82
2022/04/12 00:43:46;;;;;;;0.70;0.70;;;;;;;1.59;90.77;98611.88;4805411;29;20058;-83
2022/04/12 00:46:13;;;;;;;0.80;0.80;;;;;;;1.64;90.75;98605.97;4805227;29;20050;-82
2022/04/12 00:48:40;;;;;;;0.80;0.80;;;;;;;1.64;90.55;98604.13;4805392;29;20103;-82
2022/04/12 00:51:08;;;;;;;0.80;0.80;;;;;;;1.65;90.66;98616.44;4805089;29;20055;-82
2022/04/12 00:53:36;;;;;;;0.80;0.80;;;;;;;1.65;90.49;98619.09;4805260;29;20099;-84
2022/04/12 00:56:03;;;;;;;0.70;0.70;;;;;;;1.68;90.42;98624.00;4818853;29;20074;-83
2022/04/12 00:58:30;;;;;;;0.80;0.80;;;;;;;1.71;90.41;98612.97;4804815;29;20058;-83
2022/04/12 01:00:58;;;;;;;0.80;0.80;;;;;;;1.72;90.56;98604.00;4804389;29;20332;-83
2022/04/12 01:03:25;;;;;;;0.70;0.70;;;;;;;1.77;90.35;98621.19;4804814;29;20475;-83
2022/04/12 01:05:53;;;;;;;0.80;0.80;;;;;;;1.77;90.45;98603.38;4805073;29;20146;-82
2022/04/12 01:08:20;;;;;;;0.70;0.70;;;;;;;1.79;90.37;98604.00;4802694;29;20157;-83
2022/04/12 01:10:48;;;;;;;0.70;0.70;;;;;;;1.76;90.19;98598.25;4803806;29;20147;-83
2022/04/12 01:13:15;;;;;;;0.70;0.70;;;;;;;1.76;89.89;98582.31;4804091;29;20101;-84
2022/04/12 01:15:42;;;;;;;0.68;0.68;;;;;;;1.77;89.80;98579.44;4804931;29;20054;-83
2022/04/12 01:18:13;;;;;;;0.70;0.70;;;;;;;1.79;89.63;98571.25;4804620;29;20059;-83
2022/04/12 01:20:40;;;;;;;0.70;0.70;;;;;;;1.78;89.55;98572.28;4809195;29;20057;-81
2022/04/12 01:23:14;;;;;;;0.70;0.70;;;;;;;1.78;89.69;98569.63;4813972;29;20046;-84
2022/04/12 01:25:42;;;;;;;0.60;0.60;;;;;;;1.79;89.76;98565.94;4812157;29;20063;-83
2022/04/12 01:28:10;;;;;;;0.70;0.70;;;;;;;1.76;89.73;98567.16;4815314;29;20149;-82
2022/04/12 01:30:37;;;;;;;0.60;0.60;;;;;;;1.78;89.71;98566.97;4813343;29;20075;-84
2022/04/12 01:33:05;;;;;;;0.68;0.68;;;;;;;1.80;89.85;98564.91;4811356;29;20077;-82
2022/04/12 01:35:32;;;;;;;0.60;0.60;;;;;;;1.84;89.76;98571.47;4810789;29;20134;-83
2022/04/12 01:38:01;;;;;;;0.70;0.70;;;;;;;1.83;89.52;98565.34;4805843;29;20595;-83
2022/04/12 01:40:28;;;;;;;0.68;0.68;;;;;;;1.84;89.60;98564.31;4806162;29;20051;-83
2022/04/12 01:42:55;;;;;;;0.70;0.70;;;;;;;1.83;89.81;98556.53;4805447;29;20459;-82
2022/04/12 01:45:24;;;;;;;0.63;0.63;;;;;;;1.83;89.54;98553.88;4806116;29;20149;-83
2022/04/12 01:47:52;;;;;;;0.68;0.68;;;;;;;1.85;89.59;98549.16;4805636;29;20051;-83
2022/04/12 01:50:19;;;;;;;0.65;0.65;;;;;;;1.86;89.68;98543.66;4803883;29;20599;-82
2022/04/12 01:52:46;;;;;;;0.70;0.70;;;;;;;1.84;89.60;98544.88;4805323;29;20046;-83
2022/04/12 01:55:14;;;;;;;0.60;0.60;;;;;;;1.84;89.47;98548.34;4805371;29;20059;-83
2022/04/12 01:57:41;;;;;;;0.70;0.70;;;;;;;1.83;89.58;98545.91;4804311;29;20151;-83
2022/04/12 02:00:09;;;;;;;0.70;0.70;;;;;;;1.80;89.55;98541.81;4805285;29;20170;-83
2022/04/12 02:02:39;;;;;;;0.70;0.70;;;;;;;1.81;89.47;98543.44;4805364;29;20051;-83
2022/04/12 02:05:07;;;;;;;0.70;0.70;;;;;;;1.82;89.59;98560.22;4804003;29;20050;-82
2022/04/12 02:07:42;;;;;;;0.70;0.70;;;;;;;1.81;89.56;98561.25;4804774;29;20161;-82
2022/04/12 02:10:11;;;;;;;0.70;0.70;;;;;;;1.77;89.48;98546.69;4806279;29;20062;-82
2022/04/12 02:12:38;;;;;;;0.60;0.60;;;;;;;1.73;89.54;98547.09;4807206;29;20062;-83
2022/04/12 02:15:05;;;;;;;0.70;0.70;;;;;;;1.72;89.38;98529.50;4806471;29;20059;-82
2022/04/12 02:17:34;;;;;;;0.80;0.80;;;;;;;1.71;89.52;98519.03;4820524;29;20058;-82
2022/04/12 02:20:01;;;;;;;0.70;0.70;;;;;;;1.65;89.39;98504.69;4809083;29;20058;-82
2022/04/12 02:22:29;;;;;;;0.68;0.68;;;;;;;1.62;89.79;98507.78;4822079;29;20154;-82
2022/04/12 02:24:56;;;;;;;0.80;0.80;;;;;;;1.66;89.74;98498.34;4807272;29;20572;-83
2022/04/12 02:27:23;;;;;;;0.70;0.70;;;;;;;1.66;89.88;98514.31;4807133;29;20078;-82
2022/04/12 02:29:50;;;;;;;0.70;0.70;;;;;;;1.69;90.07;98534.38;4807896;29;20546;-82
2022/04/12 02:32:17;;;;;;;0.70;0.70;;;;;;;1.72;90.13;98550.78;4807979;29;20055;-82
2022/04/12 02:34:44;;;;;;;0.73;0.73;;;;;;;1.73;90.31;98544.44;4808111;29;20082;-84
2022/04/12 02:37:11;;;;;;;0.70;0.70;;;;;;;1.70;90.34;98542.16;4807740;29;20299;-82
2022/04/12 02:39:39;;;;;;;0.70;0.70;;;;;;;1.70;90.27;98542.16;4807844;29;20409;-83
2022/04/12 02:42:06;;;;;;;0.80;0.80;;;;;;;1.70;90.12;98536.84;4808158;29;20089;-82
2022/04/12 02:44:34;;;;;;;0.60;0.60;;;;;;;1.69;90.03;98529.88;4808239;29;20454;-82
2022/04/12 02:47:01;;;;;;;0.70;0.70;;;;;;;1.69;90.30;98534.38;4806832;29;20088;-82
2022/04/12 02:49:28;;;;;;;0.60;0.60;;;;;;;1.65;90.34;98536.63;4808206;29;20129;-82
2022/04/12 02:51:55;;;;;;;0.70;0.70;;;;;;;1.63;90.18;98543.16;4821761;29;20400;-82
2022/04/12 02:54:22;;;;;;;0.70;0.70;;;;;;;1.68;90.55;98554.84;4807632;29;20121;-82
2022/04/12 02:56:49;;;;;;;0.80;0.80;;;;;;;1.72;90.52;98550.78;4807640;29;20058;-82
2022/04/12 02:59:17;;;;;;;0.57;0.57;;;;;;;1.73;90.41;98556.91;4807298;29;20059;-82
2022/04/12 03:01:44;;;;;;;0.80;0.80;;;;;;;1.72;90.16;98540.13;4806961;29;20067;-83
2022/04/12 03:04:11;;;;;;;0.70;0.70;;;;;;;1.69;90.58;98534.38;4807251;29;20055;-83
2022/04/12 03:06:38;;;;;;;0.80;0.80;;;;;;;1.71;90.74;98540.31;4807250;29;20051;-83
2022/04/12 03:09:05;;;;;;;0.65;0.65;;;;;;;1.73;90.77;98533.78;4806330;29;20069;-83
2022/04/12 03:11:34;;;;;;;0.75;0.75;;;;;;;1.73;90.93;98536.44;4807381;29;20494;-82
2022/04/12 03:14:01;;;;;;;0.70;0.70;;;;;;;1.73;90.75;98535.63;4807164;29;20059;-84
2022/04/12 03:16:28;;;;;;;0.70;0.70;;;;;;;1.75;90.98;98538.91;4807638;29;20404;-83
2022/04/12 03:18:55;;;;;;;0.70;0.70;;;;;;;1.74;90.94;98535.41;4806698;29;20066;-84
2022/04/12 03:21:22;;;;;;;0.80;0.80;;;;;;;1.77;91.18;98539.50;4806919;29;20047;-82
2022/04/12 03:23:50;;;;;;;0.80;0.80;;;;;;;1.82;91.04;98533.59;4807598;29;20055;-83
2022/04/12 03:26:17;;;;;;;0.73;0.73;;;;;;;1.83;91.05;98519.28;4806636;29;20093;-84
2022/04/12 03:28:44;;;;;;;0.70;0.70;;;;;;;1.85;90.87;98533.19;4807954;29;20127;-82
2022/04/12 03:31:11;;;;;;;0.80;0.80;;;;;;;1.87;90.97;98523.19;4805799;29;20229;-83
2022/04/12 03:33:38;;;;;;;0.70;0.70;;;;;;;1.89;90.82;98521.16;4807171;29;20522;-82
2022/04/12 03:36:05;;;;;;;0.70;0.70;;;;;;;1.86;91.12;98530.34;4804907;29;20047;-84
2022/04/12 03:38:35;;;;;;;0.80;0.80;;;;;;;1.86;91.03;98533.00;4806491;29;20097;-83
2022/04/12 03:41:03;;;;;;;0.70;0.70;;;;;;;1.86;90.94;98534.84;4806519;29;20162;-82
2022/04/12 03:43:30;;;;;;;0.70;0.70;;;;;;;1.89;91.13;98547.75;4806252;29;20119;-83
2022/04/12 03:45:57;;;;;;;0.70;0.70;;;;;;;1.91;91.20;98543.88;4806066;29;20062;-82
2022/04/12 03:48:24;;;;;;;0.70;0.70;;;;;;;1.95;91.25;98554.97;4805905;29;20588;-83
2022/04/12 03:50:51;;;;;;;0.88;0.88;;;;;;;1.99;91.34;98553.53;4804470;29;20059;-83
2022/04/12 03:53:19;;;;;;;0.70;0.70;;;;;;;2.00;91.53;98541.03;4804663;29;20419;-82
2022/04/12 03:55:46;;;;;;;0.80;0.80;;;;;;;2.01;91.36;98556.00;4806060;29;20055;-83
2022/04/12 03:58:19;;;;;;;0.70;0.70;;;;;;;2.05;91.53;98559.88;4806743;29;20066;-82
2022/04/12 04:00:52;;;;;;;0.80;0.80;;;;;;;2.05;91.61;98552.72;4807003;29;20434;-83
2022/04/12 04:03:20;;;;;;;0.70;0.70;;;;;;;2.12;91.57;98558.88;4823229;29;20102;-83
2022/04/12 04:05:47;;;;;;;0.70;0.70;;;;;;;2.11;91.39;98556.44;4822250;29;20058;-84
2022/04/12 04:08:14;;;;;;;0.75;0.75;;;;;;;2.09;91.43;98556.63;4814186;29;20138;-84
2022/04/12 04:10:41;;;;;;;0.77;0.77;;;;;;;2.14;91.54;98561.34;4812863;29;20135;-82
2022/04/12 04:13:08;;;;;;;0.70;0.70;;;;;;;2.19;91.55;98555.41;4813190;29;20054;-88
2022/04/12 04:15:36;;;;;;;0.80;0.80;;;;;;;2.22;91.26;98555.00;4809707;29;20058;-85
2022/04/12 04:18:03;;;;;;;0.70;0.70;;;;;;;2.26;91.36;98556.25;4826671;29;20054;-87
2022/04/12 04:20:31;;;;;;;0.70;0.70;;;;;;;2.27;91.17;98549.91;4807426;29;20104;-86
2022/04/12 04:22:58;;;;;;;0.70;0.70;;;;;;;2.27;91.26;98558.69;4812087;29;20073;-84
2022/04/12 04:25:25;;;;;;;0.70;0.70;;;;;;;2.28;91.41;98560.38;4807601;29;20050;-84
2022/04/12 04:27:52;;;;;;;0.60;0.60;;;;;;;2.33;91.58;98551.75;4810373;29;20054;-84
2022/04/12 04:30:20;;;;;;;0.63;0.63;;;;;;;2.33;91.22;98543.75;4819222;29;20069;-83
2022/04/12 04:32:49;;;;;;;0.70;0.70;;;;;;;2.35;91.02;98544.38;4809958;29;20058;-83
2022/04/12 04:35:18;;;;;;;0.70;0.70;;;;;;;2.37;91.35;98555.66;4807423;29;20061;-82
2022/04/12 04:37:46;;;;;;;0.70;0.70;;;;;;;2.39;91.41;98558.94;4809582;29;20712;-84
2022/04/12 04:40:18;;;;;;;0.70;0.70;;;;;;;2.43;91.47;98557.53;4810263;29;20546;-83
2022/04/12 04:42:53;;;;;;;0.70;0.70;;;;;;;2.42;91.49;98558.53;4801328;29;20416;-83
2022/04/12 04:45:34;;;;;;;0.75;0.75;;;;;;;2.43;91.45;98546.03;4797845;29;20055;-82
2022/04/12 04:48:03;;;;;;;0.65;0.65;;;;;;;2.43;91.40;98541.53;4809757;29;20054;-84
2022/04/12 04:50:32;;;;;;;0.70;0.70;;;;;;;2.50;91.38;98541.53;4795528;29;20079;-84
2022/04/12 04:53:03;;;;;;;0.70;0.70;;;;;;;2.45;91.10;98534.16;4813127;29;20106;-82
2022/04/12 04:55:30;;;;;;;0.70;0.70;;;;;;;2.44;91.33;98539.69;4820264;29;20161;-84
2022/04/12 04:57:59;;;;;;;0.80;0.80;;;;;;;2.53;91.68;98531.31;4833379;29;20154;-82
2022/04/12 05:00:29;;;;;;;0.80;0.80;;;;;;;2.53;91.42;98531.31;4804855;29;20051;-85
2022/04/12 05:02:58;;;;;;;0.80;0.80;;;;;;;2.55;91.61;98537.22;4805766;29;20078;-83
2022/04/12 05:05:26;;;;;;;0.70;0.70;;;;;;;2.58;91.43;98534.19;4815366;29;20050;-84
2022/04/12 05:07:55;;;;;;;0.80;0.80;;;;;;;2.61;91.10;98530.28;4813307;29;20062;-84
2022/04/12 05:10:29;;;;;;;0.70;0.70;;;;;;;2.58;91.24;98541.31;4812582;29;20134;-84
2022/04/12 05:12:56;;;;;;;0.80;0.80;;;;;;;2.55;91.30;98544.41;4812055;29;20069;-85
2022/04/12 05:15:23;;;;;;;0.80;0.80;;;;;;;2.53;91.39;98552.63;4815133;29;20105;-85
2022/04/12 05:17:52;;;;;;;0.70;0.70;;;;;;;2.57;91.56;98553.84;4820188;29;20084;-86
2022/04/12 05:20:21;;;;;;;0.77;0.77;;;;;;;2.65;91.52;98566.13;4819522;29;20115;-85
2022/04/12 05:22:49;;;;;;;0.70;0.70;;;;;;;2.65;91.54;98567.97;4496645;29;9999804;-84
2022/04/12 05:25:17;;;;;;;0.70;0.70;;;;;;;2.70;91.44;98571.66;4806755;29;20143;-84
2022/04/12 05:27:44;;;;;;;0.70;0.70;;;;;;;2.81;91.31;98575.56;4810401;29;20058;-86
2022/04/12 05:30:13;;;;;;;0.65;0.65;;;;;;;2.85;90.79;98576.81;4819112;29;20066;-86
2022/04/12 05:32:41;;;;;;;0.70;0.70;;;;;;;2.86;91.23;98567.78;4826662;29;20090;-86
2022/04/12 05:35:22;;;;;;;0.80;0.80;;;;;;;2.80;91.09;98556.09;4832273;29;20497;-87
2022/04/12 05:37:52;;;;;;;0.70;0.70;;;;;;;2.91;90.91;98559.16;4807782;29;20051;-85
2022/04/12 05:40:24;;;;;;;0.80;0.80;;;;;;;3.01;91.05;98565.75;4810330;29;20117;-86
2022/04/12 05:43:01;;;;;;;0.60;0.60;;;;;;;3.12;90.52;98555.47;4799111;29;20177;-84
2022/04/12 05:45:37;;;;;;;0.70;0.70;;;;;;;3.21;90.17;98560.34;4815454;29;20061;-88
2022/04/12 05:48:24;;;;;;;0.70;0.70;;;;;;;3.29;89.90;98551.31;4791623;29;20055;-88
2022/04/12 05:50:51;;;;;;;0.70;0.70;;;;;;;3.36;89.30;98546.78;4814201;29;20568;-85
2022/04/12 05:53:20;;;;;;;0.70;0.70;;;;;;;3.49;89.15;98559.28;4818001;29;20058;-84
2022/04/12 05:55:47;;;;;;;0.70;0.70;;;;;;;3.55;88.54;98538.97;4805682;29;20055;-84
2022/04/12 05:58:15;;;;;;;0.70;0.70;;;;;;;3.53;88.24;98544.50;4812019;29;20046;-83
2022/04/12 06:00:43;;;;;;;0.68;0.68;;;;;;;3.53;88.48;98541.00;4780259;29;20112;-83
2022/04/12 06:03:10;;;;;;;0.80;0.80;;;;;;;3.72;88.49;98550.78;4776312;29;20071;-84
2022/04/12 06:05:39;;;;;;;0.70;0.70;;;;;;;3.81;88.18;98549.53;4804950;29;20127;-83
2022/04/12 06:08:07;;;;;;;0.70;0.70;;;;;;;3.63;87.57;98549.38;4817023;29;20152;-87
2022/04/12 06:10:35;;;;;;;0.60;0.60;;;;;;;3.64;87.67;98553.69;4828229;29;20062;-86
2022/04/12 06:13:02;;;;;;;0.70;0.70;;;;;;;3.69;88.08;98551.19;4829118;29;20078;-91
2022/04/12 06:15:29;;;;;;;0.70;0.70;;;;;;;3.80;87.85;98547.88;4815638;29;20069;-83
2022/04/12 06:17:57;;;;;;;0.70;0.70;;;;;;;3.86;87.85;98543.53;4816404;29;20050;-85
2022/04/12 06:20:24;;;;;;;0.60;0.60;;;;;;;3.87;87.48;98542.50;4817660;29;20066;-85
2022/04/12 06:22:51;;;;;;;0.60;0.60;;;;;;;3.91;87.72;98547.22;4818037;29;20534;-83
2022/04/12 06:25:20;;;;;;;0.60;0.60;;;;;;;3.96;87.47;98548.44;4805145;29;20058;-85
2022/04/12 06:28:13;;;;;;;0.70;0.70;;;;;;;4.02;87.07;98545.72;4828313;29;20529;-84
2022/04/12 06:30:40;;;;;;;0.80;0.80;;;;;;;4.16;87.12;98565.16;4814364;29;20104;-84
2022/04/12 06:33:08;;;;;;;0.70;0.70;;;;;;;4.34;86.52;98565.25;4810501;29;20157;-88
2022/04/12 06:35:35;;;;;;;0.70;0.70;;;;;;;4.33;86.42;98557.47;4816877;29;20055;-87
2022/04/12 06:38:04;;;;;;;0.70;0.70;;;;;;;4.41;86.38;98559.09;4828035;29;20166;-87
2022/04/12 06:40:32;;;;;;;0.70;0.70;;;;;;;4.41;86.20;98564.44;4813477;29;20050;-87
2022/04/12 06:42:59;;;;;;;0.70;0.70;;;;;;;4.32;86.26;98566.50;4824814;29;20054;-85
2022/04/12 06:45:26;;;;;;;0.60;0.60;;;;;;;4.15;86.59;98570.72;4822728;29;20077;-84
2022/04/12 06:47:55;;;;;;;0.70;0.70;;;;;;;4.17;86.68;98568.66;4823302;29;20109;-85
2022/04/12 06:50:23;;;;;;;0.70;0.70;;;;;;;4.07;86.56;98577.13;4816175;29;20157;-87
2022/04/12 06:52:51;;;;;;;0.70;0.70;;;;;;;4.02;86.83;98579.63;4806838;29;20579;-83
2022/04/12 06:55:18;;;;;;;0.70;0.70;;;;;;;3.99;86.83;98569.38;4804781;29;20137;-84
2022/04/12 06:57:47;;;;;;;0.70;0.70;;;;;;;3.95;86.96;98550.28;4803831;29;20093;-85
2022/04/12 07:00:19;;;;;;;0.60;0.60;;;;;;;4.00;87.21;98576.34;4810326;29;20081;-86
2022/04/12 07:02:46;;;;;;;0.70;0.70;;;;;;;4.04;87.29;98580.22;4818889;29;20102;-85
2022/04/12 07:05:13;;;;;;;0.70;0.70;;;;;;;4.04;87.45;98573.03;4820263;29;20062;-87
2022/04/12 07:07:42;;;;;;;0.60;0.60;;;;;;;4.16;87.49;98572.38;4826695;29;20062;-86
2022/04/12 07:10:14;;;;;;;0.70;0.70;;;;;;;4.25;87.36;98571.88;4850985;29;20547;-85
2022/04/12 07:12:41;;;;;;;0.70;0.70;;;;;;;4.37;87.01;98579.22;4808653;29;20529;-87
2022/04/12 07:15:14;;;;;;;0.70;0.70;;;;;;;4.44;86.67;98578.16;4823589;29;20119;-85
2022/04/12 07:17:41;;;;;;;0.70;0.70;;;;;;;4.44;86.52;98585.38;4792611;29;20065;-83
2022/04/12 07:20:09;;;;;;;0.60;0.60;;;;;;;4.41;86.83;98581.28;4822690;29;20099;-85
2022/04/12 07:22:36;;;;;;;0.70;0.70;;;;;;;4.52;86.85;98590.44;4822436;29;20054;-84
2022/04/12 07:25:04;;;;;;;0.60;0.60;;;;;;;4.56;86.34;98586.31;4823907;29;20055;-85
2022/04/12 07:27:38;;;;;;;0.70;0.70;;;;;;;4.65;86.38;98581.53;4824754;29;20454;-87
2022/04/12 07:30:09;;;;;;;0.70;0.70;;;;;;;4.71;85.92;98589.50;4822881;29;20058;-86
2022/04/12 07:32:36;;;;;;;0.70;0.70;;;;;;;4.77;85.79;98595.81;4824170;29;20050;-83
2022/04/12 07:35:03;;;;;;;0.60;0.60;;;;;;;4.79;85.72;98604.47;4820330;29;20051;-86
2022/04/12 07:37:30;;;;;;;0.60;0.60;;;;;;;4.78;85.32;98603.66;4822111;29;20464;-85
2022/04/12 07:39:57;;;;;;;0.60;0.60;;;;;;;4.78;85.68;98603.66;4835241;29;20058;-86
2022/04/12 07:42:24;;;;;;;0.70;0.70;;;;;;;4.84;85.42;98595.78;4821063;29;20145;-85
2022/04/12 07:44:52;;;;;;;0.60;0.60;;;;;;;4.92;85.22;98599.00;4819708;29;20054;-85
2022/04/12 07:47:19;;;;;;;0.70;0.70;;;;;;;4.89;85.07;98610.13;4819698;29;20125;-86
2022/04/12 07:49:47;;;;;;;0.60;0.60;;;;;;;4.99;85.22;98609.66;4835801;29;20054;-86
2022/04/12 07:52:14;;;;;;;0.70;0.70;;;;;;;4.97;84.56;98607.19;4822554;29;20455;-86
2022/04/12 07:54:41;;;;;;;0.70;0.70;;;;;;;4.93;84.90;98605.16;4820705;29;20479;-86
2022/04/12 07:57:08;;;;;;;0.70;0.70;;;;;;;4.96;85.11;98607.41;4821564;29;20081;-85
2022/04/12 07:59:38;;;;;;;0.70;0.70;;;;;;;5.06;84.72;98604.22;4803823;29;20062;-85
2022/04/12 08:05:39;;;;;;;0.70;0.70;;;;;;;5.24;84.27;98595.44;4806386;29;20357;-87
2022/04/12 08:08:13;;;;;;;0.70;0.70;;;;;;;5.21;83.93;98591.34;4805029;29;20469;-85
2022/04/12 08:10:41;;;;;;;0.60;0.60;;;;;;;5.24;83.94;98595.44;4806356;29;20046;-87
2022/04/12 08:13:12;;;;;;;0.70;0.70;;;;;;;5.24;84.08;98593.59;4803856;29;20597;-87
2022/04/12 08:15:39;;;;;;;0.70;0.70;;;;;;;5.40;83.81;98589.53;4806020;29;20171;-89
2022/04/12 08:18:09;;;;;;;0.70;0.70;;;;;;;5.48;83.47;98596.47;4802866;29;20119;-87
2022/04/12 08:20:36;;;;;;;0.70;0.70;;;;;;;5.44;83.27;98601.41;4805134;29;20050;-88
2022/04/12 08:23:04;;;;;;;0.70;0.70;;;;;;;5.44;83.62;98596.06;4821701;29;20119;-87
2022/04/12 08:25:31;;;;;;;0.60;0.60;;;;;;;5.61;83.53;98607.84;4821276;29;20058;-87
2022/04/12 08:27:58;;;;;;;0.68;0.68;;;;;;;5.75;83.26;98588.97;4824683;29;20097;-89
2022/04/12 08:30:25;;;;;;;0.70;0.70;;;;;;;5.76;82.91;98594.09;4838522;29;20102;-90
2022/04/12 08:32:52;;;;;;;0.60;0.60;;;;;;;5.80;82.88;98591.78;4840596;29;20050;-87
2022/04/12 08:35:19;;;;;;;0.65;0.65;;;;;;;5.81;82.44;98598.78;4839225;29;20038;-89
2022/04/12 08:37:46;;;;;;;0.60;0.60;;;;;;;5.82;82.70;98590.53;4821461;29;20599;-87
2022/04/12 08:40:14;;;;;;;0.60;0.60;;;;;;;5.89;82.58;98593.13;4821110;29;20059;-84
2022/04/12 08:42:41;;;;;;;0.60;0.60;;;;;;;5.84;82.19;98579.56;4823062;29;20054;-89
2022/04/12 08:45:09;;;;;;;0.70;0.70;;;;;;;6.00;82.25;98579.00;4829472;29;20046;-83
2022/04/12 08:47:39;;;;;;;0.70;0.70;;;;;;;6.07;81.91;98578.91;4813033;29;20439;-86
2022/04/12 08:50:07;;;;;;;0.70;0.70;;;;;;;6.10;81.92;98591.03;4801777;29;20055;-85
2022/04/12 08:52:37;;;;;;;0.70;0.70;;;;;;;6.27;81.71;98600.09;4806654;29;20047;-88
2022/04/12 08:55:06;;;;;;;0.75;0.75;;;;;;;6.58;81.29;98606.28;4818193;29;20152;-84
2022/04/12 08:57:34;;;;;;;0.80;0.80;;;;;;;6.92;80.06;98597.50;4802856;29;20058;-84
2022/04/12 09:00:04;;;;;;;0.60;0.60;;;;;;;7.12;78.85;98585.63;4810971;29;20169;-88
2022/04/12 09:02:32;;;;;;;0.60;0.60;;;;;;;7.13;78.48;98600.69;4819744;29;20107;-85
2022/04/12 09:04:59;;;;;;;0.60;0.60;;;;;;;7.11;78.64;98594.72;4819289;29;20058;-85
2022/04/12 09:07:27;;;;;;;0.70;0.70;;;;;;;7.13;77.96;98598.00;4819269;29;20058;-85
2022/04/12 09:10:13;;;;;;;0.65;0.65;;;;;;;6.92;77.93;98602.88;4819701;29;20107;-88
2022/04/12 09:12:40;;;;;;;0.65;0.65;;;;;;;6.79;77.83;98613.00;4818792;29;20050;-84
2022/04/12 09:15:10;;;;;;;0.70;0.70;;;;;;;6.77;78.79;98615.09;4807138;29;20058;-86
2022/04/12 09:17:41;;;;;;;0.60;0.60;;;;;;;7.21;78.21;98604.88;4818746;29;20062;-86
2022/04/12 09:20:14;;;;;;;0.70;0.70;;;;;;;7.55;77.12;98604.06;4804245;29;20082;-86
2022/04/12 09:22:41;;;;;;;0.65;0.65;;;;;;;7.76;76.44;98602.66;4815225;29;20075;-88
2022/04/12 09:25:10;;;;;;;0.60;0.60;;;;;;;7.55;76.55;98606.75;4833913;29;20139;-88
2022/04/12 09:27:40;;;;;;;0.70;0.70;;;;;;;7.75;76.35;98609.09;4830418;29;20065;-87
2022/04/12 09:30:10;;;;;;;0.60;0.60;;;;;;;8.10;75.75;98602.00;4822184;29;20050;-89
2022/04/12 09:32:39;;;;;;;0.60;0.60;;;;;;;8.19;75.28;98604.06;4813331;29;20054;-88
2022/04/12 09:35:08;;;;;;;0.70;0.70;;;;;;;8.33;75.08;98601.09;4810407;29;20051;-89
2022/04/12 09:37:37;;;;;;;0.70;0.70;;;;;;;8.54;74.27;98596.97;4808608;29;20235;-86
2022/04/12 09:40:06;;;;;;;0.60;0.60;;;;;;;8.64;73.52;98602.53;4814942;29;20088;-91
2022/04/12 09:42:57;;;;;;;0.60;0.60;;;;;;;8.75;73.24;98607.03;4816650;29;20047;-90
2022/04/12 09:45:27;;;;;;;0.70;0.70;;;;;;;8.98;71.48;98598.00;4832426;29;20092;-89
2022/04/12 09:48:05;;;;;;;0.70;0.70;;;;;;;8.70;71.65;98601.53;4816345;29;20059;-91
2022/04/12 09:50:59;;;;;;;0.70;0.70;;;;;;;8.60;71.52;98604.88;4821786;29;20074;-89
2022/04/12 09:53:41;;;;;;;0.60;0.60;;;;;;;8.59;71.91;98611.31;4819893;29;20061;-90
2022/04/12 09:56:31;;;;;;;0.70;0.70;;;;;;;8.76;72.22;98608.66;4817241;29;20050;-91
2022/04/12 09:59:00;;;;;;;0.60;0.60;;;;;;;8.90;71.62;98611.84;4821373;29;20575;-91
2022/04/12 10:01:28;;;;;;;0.60;0.60;;;;;;;8.95;71.74;98613.81;4816864;29;20051;-90
2022/04/12 10:03:57;;;;;;;0.60;0.60;;;;;;;8.98;70.92;98616.03;4815439;29;20054;-87
2022/04/12 10:06:26;;;;;;;0.70;0.70;;;;;;;9.26;70.38;98623.19;4817587;29;20134;-91
2022/04/12 10:08:56;;;;;;;0.70;0.70;;;;;;;9.27;70.79;98622.16;4825342;29;20080;-88
2022/04/12 10:11:24;;;;;;;0.70;0.70;;;;;;;9.84;69.81;98621.09;4821044;29;20127;-91
2022/04/12 10:13:51;;;;;;;0.60;0.60;;;;;;;10.27;68.48;98625.69;4822094;29;20090;-90
2022/04/12 10:16:20;;;;;;;0.60;0.60;;;;;;;10.28;67.89;98634.63;4812513;29;20058;-89
2022/04/12 10:18:49;;;;;;;0.60;0.60;;;;;;;10.12;67.62;98625.50;4816328;29;20079;-86
2022/04/12 10:21:19;;;;;;;0.60;0.60;;;;;;;9.94;68.42;98624.72;4823002;29;20657;-88
2022/04/12 10:23:51;;;;;;;0.57;0.57;;;;;;;9.92;69.23;98634.13;4829213;29;20082;-89
2022/04/12 10:26:21;;;;;;;0.60;0.60;;;;;;;10.07;69.09;98628.94;4829036;29;20429;-85
2022/04/12 10:28:59;;;;;;;0.60;0.60;;;;;;;10.28;68.25;98631.91;4817491;29;20521;-86
2022/04/12 10:31:30;;;;;;;0.60;0.60;;;;;;;10.35;67.89;98635.25;4812401;29;20058;-88
2022/04/12 10:34:09;;;;;;;0.60;0.60;;;;;;;10.38;67.34;98627.47;4816828;29;20054;-87
2022/04/12 10:36:54;;;;;;;0.57;0.57;;;;;;;10.36;67.37;98629.59;4813277;29;20058;-89
2022/04/12 10:39:47;;;;;;;0.60;0.60;;;;;;;10.33;66.53;98624.72;4811030;29;20511;-88
2022/04/12 10:42:28;;;;;;;0.60;0.60;;;;;;;10.21;67.03;98626.69;4818022;29;20384;-89
2022/04/12 10:44:56;;;;;;;0.60;0.60;;;;;;;9.90;67.30;98623.63;4832568;29;20063;-91
2022/04/12 10:47:33;;;;;;;0.50;0.50;;;;;;;9.52;67.75;98622.56;4816455;29;20058;-88
2022/04/12 10:50:05;;;;;;;0.60;0.60;;;;;;;9.68;68.17;98620.06;4820355;29;20495;-87
2022/04/12 10:52:48;;;;;;;0.70;0.70;;;;;;;9.77;67.53;98615.88;4822145;29;20124;-86
2022/04/12 10:55:23;;;;;;;0.55;0.55;;;;;;;9.87;68.15;98616.00;4820156;29;20054;-88
2022/04/12 10:57:51;;;;;;;;;;;;;;;9.68;68.12;98617.38;4819374;29;20055;-89
2022/04/12 11:00:20;;;;;;;0.60;0.60;;;;;;;9.65;68.32;98613.31;4829278;29;19929;-87
2022/04/12 11:02:56;;;;;;;0.50;0.50;;;;;;;9.50;68.75;98608.50;4819467;29;20110;-89
2022/04/12 11:05:33;;;;;;;0.60;0.60;;;;;;;9.73;68.87;98599.41;4824856;29;20050;-88
2022/04/12 11:08:25;;;;;;;0.60;0.60;;;;;;;9.63;68.11;98599.25;4823092;29;20099;-89
2022/04/12 11:10:52;;;;;;;0.50;0.50;;;;;;;9.05;69.74;98593.25;4818655;29;20093;-89
2022/04/12 11:13:21;;;;;;;0.50;0.50;;;;;;;8.96;70.56;98589.34;4812654;29;20057;-88
2022/04/12 11:15:56;;;;;;;0.52;0.52;;;;;;;8.81;71.05;98597.16;4826201;29;20050;-89
2022/04/12 11:18:23;;;;;;;0.60;0.60;;;;;;;8.74;70.59;98593.81;4830017;29;20077;-90
2022/04/12 11:21:02;;;;;;;0.50;0.50;;;;;;;8.49;71.96;98594.19;4827651;29;20101;-89
2022/04/12 11:23:46;;;;;;;0.60;0.60;;;;;;;8.64;71.81;98592.56;4836044;29;20080;-88
2022/04/12 11:26:49;;;;;;;0.50;0.50;;;;;;;8.86;71.59;98583.78;4850547;29;20058;-90
2022/04/12 11:29:21;;;;;;;0.50;0.50;;;;;;;8.80;71.69;98582.09;4850882;29;20145;-87
2022/04/12 11:31:53;;;;;;;0.60;0.60;;;;;;;8.81;71.89;98589.91;4820536;29;20157;-88
2022/04/12 11:34:22;;;;;;;0.50;0.50;;;;;;;8.72;72.05;98599.44;4858109;29;20065;-89
2022/04/12 11:36:58;;;;;;;0.60;0.60;;;;;;;8.73;72.36;98605.63;4858462;29;20050;-87
2022/04/12 11:39:27;;;;;;;0.50;0.50;;;;;;;8.82;72.14;98596.13;4851003;29;20164;-89
2022/04/12 11:42:00;;;;;;;0.57;0.57;;;;;;;8.97;71.81;98593.69;4850032;29;20562;-88
2022/04/12 11:44:28;;;;;;;0.60;0.60;;;;;;;9.02;71.47;98598.34;4849948;29;20050;-89
2022/04/12 11:46:56;;;;;;;0.60;0.60;;;;;;;9.15;71.78;98597.19;4859021;29;20077;-88
2022/04/12 11:49:30;;;;;;;0.50;0.50;;;;;;;9.37;70.74;98600.78;4859025;29;20136;-90
2022/04/12 11:52:00;;;;;;;0.60;0.60;;;;;;;9.69;70.19;98597.44;4839870;29;20456;-89
2022/04/12 11:54:32;;;;;;;0.50;0.50;;;;;;;9.63;69.53;98603.84;4832962;29;20078;-87
2022/04/12 11:57:06;;;;;;;0.50;0.50;;;;;;;9.57;69.54;98596.72;4832442;29;20058;-88